Time;durP1;ratioP1;P1;durP2;ratioP2;P2;SDS_P1;SDS_P2;PMS_P1;PMS_P2;Temp;Humidity;BMP_temperature;BMP_pressure;BME280_temperature;BME280_humidity;BME280_pressure;Samples;Min_cycle;Max_cycle;Signal;HPM_P1;HPM_P2
2021/10/13 00:01:11;;;;;;;8.27;5.30;;;11.40;99.90;;;;;;5023422;28;20712;-59
2021/10/13 00:03:36;;;;;;;12.03;6.27;;;11.20;99.90;;;;;;5026407;28;20461;-59
2021/10/13 00:06:02;;;;;;;6.23;5.63;;;11.10;99.90;;;;;;5023792;28;20396;-60
2021/10/13 00:08:27;;;;;;;8.20;5.93;;;10.90;99.90;;;;;;5023673;28;20213;-60
2021/10/13 00:10:53;;;;;;;6.57;5.87;;;10.90;99.90;;;;;;5025246;28;20200;-60
2021/10/13 00:13:19;;;;;;;5.97;5.37;;;11.00;99.90;;;;;;5023839;28;20196;-60
2021/10/13 00:15:45;;;;;;;6.80;5.73;;;11.00;99.90;;;;;;5029952;28;20191;-61
2021/10/13 00:18:11;;;;;;;6.83;6.13;;;11.10;99.90;;;;;;5023863;28;20775;-59
2021/10/13 00:20:37;;;;;;;9.70;6.60;;;11.00;99.90;;;;;;5026947;28;20453;-59
2021/10/13 00:23:03;;;;;;;7.67;6.67;;;11.10;99.90;;;;;;5027742;28;20193;-59
2021/10/13 00:25:29;;;;;;;7.57;6.77;;;11.10;99.90;;;;;;5021869;28;20474;-60
2021/10/13 00:27:54;;;;;;;9.07;7.00;;;10.90;99.90;;;;;;5023186;28;20447;-59
2021/10/13 00:30:20;;;;;;;33.17;8.93;;;10.90;99.90;;;;;;5024711;28;20529;-60
2021/10/13 00:32:46;;;;;;;8.80;6.40;;;10.80;99.90;;;;;;5026028;28;20190;-59
2021/10/13 00:35:12;;;;;;;6.93;6.23;;;10.80;99.90;;;;;;5024028;28;20735;-61
2021/10/13 00:37:37;;;;;;;7.90;6.63;;;10.70;99.90;;;;;;5024016;28;20209;-60
2021/10/13 00:40:05;;;;;;;11.33;6.50;;;10.70;99.90;;;;;;5025632;28;20208;-60
2021/10/13 00:42:33;;;;;;;7.67;6.40;;;10.70;99.90;;;;;;5024182;28;20188;-60
2021/10/13 00:44:59;;;;;;;7.83;5.90;;;10.70;99.90;;;;;;5024464;28;21666;-60
2021/10/13 00:47:25;;;;;;;9.10;7.27;;;10.70;99.90;;;;;;5024005;28;20463;-60
2021/10/13 00:49:50;;;;;;;8.70;7.47;;;10.70;99.90;;;;;;5025622;28;20220;-60
2021/10/13 00:52:17;;;;;;;8.90;6.67;;;10.60;99.90;;;;;;5025516;28;20192;-59
2021/10/13 00:54:44;;;;;;;11.20;7.03;;;10.60;99.90;;;;;;5024546;28;20212;-59
2021/10/13 00:57:10;;;;;;;8.87;7.20;;;10.70;99.90;;;;;;5025214;28;20443;-60
2021/10/13 00:59:36;;;;;;;10.00;7.07;;;10.70;99.90;;;;;;5027818;28;20497;-60
2021/10/13 01:02:03;;;;;;;8.30;6.80;;;10.40;99.90;;;;;;5027626;28;20877;-59
2021/10/13 01:04:29;;;;;;;9.10;7.37;;;10.50;99.90;;;;;;5024430;28;20219;-62
2021/10/13 01:07:32;;;;;;;9.63;7.83;;;10.60;99.90;;;;;;5023760;28;20463;-60
2021/10/13 01:10:05;;;;;;;8.93;7.37;;;10.40;99.90;;;;;;5022879;28;20723;-59
2021/10/13 01:12:59;;;;;;;10.23;7.47;;;10.10;99.90;;;;;;5024252;28;20884;-60
2021/10/13 01:15:43;;;;;;;9.07;7.50;;;10.00;99.90;;;;;;5027313;28;20785;-60
2021/10/13 01:18:30;;;;;;;9.03;8.13;;;10.10;99.90;;;;;;5022957;28;21259;-60
2021/10/13 01:21:07;;;;;;;7.27;6.23;;;10.10;99.90;;;;;;5022398;22;20918;-58
2021/10/13 01:24:11;;;;;;;9.47;7.20;;;10.10;99.90;;;;;;5005820;28;20439;-60
2021/10/13 01:26:46;;;;;;;8.70;7.03;;;10.10;99.90;;;;;;5015286;28;20497;-60
2021/10/13 01:29:19;;;;;;;13.27;6.40;;;10.10;99.90;;;;;;5002154;28;20456;-58
2021/10/13 01:31:50;;;;;;;8.70;6.47;;;10.20;99.90;;;;;;5003370;28;20828;-57
2021/10/13 01:34:21;;;;;;;9.17;7.37;;;10.20;99.90;;;;;;5002281;28;20507;-62
2021/10/13 01:36:56;;;;;;;7.90;7.10;;;10.10;99.90;;;;;;5002055;28;21006;-61
2021/10/13 01:39:23;;;;;;;6.97;6.20;;;10.20;99.90;;;;;;5002528;28;20431;-60
2021/10/13 01:41:50;;;;;;;10.87;7.93;;;10.20;99.90;;;;;;5005999;28;20432;-57
2021/10/13 01:44:19;;;;;;;11.33;6.83;;;10.00;99.90;;;;;;5005000;28;20524;-57
2021/10/13 01:46:45;;;;;;;9.90;7.53;;;10.00;99.90;;;;;;5006856;28;20471;-56
2021/10/13 01:49:12;;;;;;;9.90;8.10;;;9.80;99.90;;;;;;5007104;28;20797;-57
2021/10/13 01:51:40;;;;;;;9.50;7.17;;;10.00;99.90;;;;;;5022010;28;20950;-56
2021/10/13 01:54:06;;;;;;;10.07;7.50;;;10.10;99.90;;;;;;5003162;28;20432;-57
2021/10/13 01:56:32;;;;;;;9.63;7.83;;;9.90;99.90;;;;;;5007873;28;20938;-56
2021/10/13 01:59:05;;;;;;;8.40;6.87;;;9.80;99.90;;;;;;5003909;28;20464;-56
2021/10/13 02:01:32;;;;;;;10.77;7.10;;;10.00;99.90;;;;;;5003004;28;20851;-60
2021/10/13 02:04:03;;;;;;;11.40;7.40;;;10.10;99.90;;;;;;5005302;28;20943;-61
2021/10/13 02:06:32;;;;;;;9.30;7.27;;;10.00;99.90;;;;;;5006298;28;20472;-60
2021/10/13 02:08:59;;;;;;;9.20;7.00;;;10.00;99.90;;;;;;5005519;28;20806;-57
2021/10/13 02:11:30;;;;;;;12.07;7.53;;;10.00;99.90;;;;;;5006566;28;20433;-59
2021/10/13 02:14:00;;;;;;;9.80;8.63;;;10.00;99.90;;;;;;5005523;28;20476;-60
2021/10/13 02:16:27;;;;;;;11.67;8.37;;;10.00;99.90;;;;;;5006037;28;20478;-60
2021/10/13 02:18:55;;;;;;;11.53;7.87;;;9.90;99.90;;;;;;5007745;28;20453;-62
2021/10/13 02:21:22;;;;;;;10.57;7.50;;;9.90;99.90;;;;;;5004073;28;20914;-62
2021/10/13 02:23:50;;;;;;;10.13;7.60;;;9.90;99.90;;;;;;5009774;28;20933;-62
2021/10/13 02:26:23;;;;;;;8.67;7.50;;;10.00;99.90;;;;;;5004692;28;20460;-62
2021/10/13 02:28:54;;;;;;;12.63;7.77;;;10.10;99.90;;;;;;5001622;28;20472;-62
2021/10/13 02:31:20;;;;;;;16.00;8.27;;;10.10;99.90;;;;;;5008110;28;20432;-62
2021/10/13 02:33:46;;;;;;;10.33;7.70;;;10.00;99.90;;;;;;5002897;28;20993;-62
2021/10/13 02:36:11;;;;;;;10.47;6.73;;;10.10;99.90;;;;;;5000672;28;20191;-62
2021/10/13 02:38:38;;;;;;;8.90;6.90;;;10.20;99.90;;;;;;5006821;28;20214;-57
2021/10/13 02:41:03;;;;;;;8.00;6.67;;;10.20;99.90;;;;;;5000953;28;20692;-57
2021/10/13 02:43:29;;;;;;;9.50;7.13;;;10.00;99.90;;;;;;5004879;28;21644;-58
2021/10/13 02:46:02;;;;;;;14.27;8.57;;;9.90;99.90;;;;;;5006298;28;20201;-58
2021/10/13 02:48:31;;;;;;;11.13;7.57;;;9.90;99.90;;;;;;5002797;28;20212;-58
2021/10/13 02:51:02;;;;;;;8.30;7.40;;;9.80;99.90;;;;;;5003511;28;20433;-57
2021/10/13 02:53:38;;;;;;;11.90;8.20;;;9.80;99.90;;;;;;5006760;28;20428;-61
2021/10/13 02:56:21;;;;;;;13.00;8.07;;;9.90;99.90;;;;;;5003885;28;20444;-58
2021/10/13 02:59:15;;;;;;;10.47;8.47;;;9.80;99.90;;;;;;5007268;28;20468;-57
2021/10/13 03:01:42;;;;;;;10.03;6.67;;;9.90;99.90;;;;;;4997008;28;20503;-62
2021/10/13 03:04:16;;;;;;;9.73;7.20;;;10.00;99.90;;;;;;5007205;28;20523;-58
2021/10/13 03:06:59;;;;;;;9.83;7.93;;;9.90;99.90;;;;;;5005579;28;20587;-56
2021/10/13 03:09:28;;;;;;;9.97;7.40;;;9.70;99.90;;;;;;5005226;28;20428;-58
2021/10/13 03:11:54;;;;;;;9.47;7.10;;;9.50;99.90;;;;;;5002957;28;20459;-56
2021/10/13 03:14:24;;;;;;;9.20;6.77;;;9.50;99.90;;;;;;5002926;28;20472;-58
2021/10/13 03:16:55;;;;;;;8.33;6.70;;;9.30;99.90;;;;;;5005915;28;20496;-60
2021/10/13 03:19:22;;;;;;;7.53;6.03;;;9.30;99.90;;;;;;5002799;28;20456;-60
2021/10/13 03:21:50;;;;;;;7.40;6.40;;;9.30;99.90;;;;;;5003336;28;20433;-60
2021/10/13 03:24:19;;;;;;;8.00;6.80;;;9.20;99.90;;;;;;5003473;28;20464;-60
2021/10/13 03:26:49;;;;;;;7.60;6.77;;;9.30;99.90;;;;;;5003945;28;20452;-62
2021/10/13 03:29:15;;;;;;;9.87;6.67;;;9.40;99.90;;;;;;4999986;28;20456;-62
2021/10/13 03:31:41;;;;;;;8.57;6.37;;;9.60;99.90;;;;;;5004128;28;20442;-62
2021/10/13 03:34:08;;;;;;;8.43;6.53;;;9.50;99.90;;;;;;5002788;28;20479;-62
2021/10/13 03:36:48;;;;;;;12.17;6.87;;;9.50;99.90;;;;;;5005311;28;20452;-62
2021/10/13 03:39:15;;;;;;;9.50;6.30;;;9.30;99.90;;;;;;5005190;28;20521;-62
2021/10/13 03:41:42;;;;;;;8.43;6.87;;;9.40;99.90;;;;;;5003942;28;20440;-62
2021/10/13 03:44:08;;;;;;;14.87;6.43;;;9.40;99.90;;;;;;5003375;28;20467;-62
2021/10/13 03:46:34;;;;;;;8.90;6.07;;;9.40;99.90;;;;;;5004487;28;20506;-62
2021/10/13 03:49:00;;;;;;;9.17;6.43;;;9.30;99.90;;;;;;5003224;28;20295;-62
2021/10/13 03:51:26;;;;;;;8.87;7.50;;;9.40;99.90;;;;;;5003068;28;20523;-62
2021/10/13 03:53:52;;;;;;;8.97;7.17;;;9.30;99.90;;;;;;5005292;28;20520;-62
2021/10/13 03:56:18;;;;;;;8.70;6.07;;;9.20;99.90;;;;;;5002735;28;20428;-62
2021/10/13 03:58:45;;;;;;;10.47;7.03;;;9.20;99.90;;;;;;5003984;28;20494;-62
2021/10/13 04:01:12;;;;;;;10.27;6.43;;;9.30;99.90;;;;;;5004216;28;20476;-62
2021/10/13 04:03:38;;;;;;;6.93;6.10;;;9.30;99.90;;;;;;5003582;28;20924;-62
2021/10/13 04:06:04;;;;;;;9.43;7.10;;;9.30;99.90;;;;;;5002790;28;20522;-62
2021/10/13 04:08:32;;;;;;;9.27;7.00;;;9.30;99.90;;;;;;5002365;28;20558;-63
2021/10/13 04:10:57;;;;;;;12.67;7.30;;;9.40;99.90;;;;;;5005083;28;20652;-62
2021/10/13 04:13:23;;;;;;;8.17;6.67;;;9.30;99.90;;;;;;5004011;28;20494;-63
2021/10/13 04:15:49;;;;;;;8.57;6.50;;;9.30;99.90;;;;;;5006495;28;20429;-63
2021/10/13 04:18:14;;;;;;;9.63;7.17;;;9.20;99.90;;;;;;5001888;28;20877;-62
2021/10/13 04:20:40;;;;;;;10.43;7.67;;;9.20;99.90;;;;;;5005087;28;20679;-62
2021/10/13 04:23:06;;;;;;;9.80;6.90;;;9.20;99.90;;;;;;5001935;28;20696;-61
2021/10/13 04:25:31;;;;;;;8.20;6.87;;;9.20;99.90;;;;;;5004336;28;20217;-57
2021/10/13 04:27:57;;;;;;;11.80;7.00;;;9.30;99.90;;;;;;5001554;28;20205;-57
2021/10/13 04:30:25;;;;;;;7.93;6.50;;;9.30;99.90;;;;;;5003251;28;20326;-62
2021/10/13 04:32:50;;;;;;;10.10;6.13;;;9.30;99.90;;;;;;5006727;28;20192;-60
2021/10/13 04:35:16;;;;;;;9.43;6.67;;;9.30;99.90;;;;;;5006243;28;20424;-63
2021/10/13 04:37:42;;;;;;;8.53;6.50;;;9.60;99.90;;;;;;5001590;28;20213;-63
2021/10/13 04:40:09;;;;;;;8.37;6.40;;;9.70;99.90;;;;;;5001730;28;20209;-57
2021/10/13 04:42:34;;;;;;;12.40;5.40;;;9.60;99.90;;;;;;5003107;28;20185;-58
2021/10/13 04:45:00;;;;;;;7.40;6.03;;;9.60;99.90;;;;;;5001961;28;20961;-58
2021/10/13 04:47:26;;;;;;;8.53;6.70;;;9.60;99.90;;;;;;5004914;28;20850;-63
2021/10/13 04:49:52;;;;;;;7.93;6.97;;;9.60;99.90;;;;;;5002347;28;20236;-55
2021/10/13 04:52:17;;;;;;;9.83;7.00;;;9.50;99.90;;;;;;5004085;28;20186;-57
2021/10/13 04:54:43;;;;;;;10.93;6.90;;;9.50;99.90;;;;;;5000471;28;20969;-57
2021/10/13 04:57:09;;;;;;;10.43;7.57;;;9.60;99.90;;;;;;5002193;28;20235;-60
2021/10/13 04:59:35;;;;;;;11.00;6.60;;;9.40;99.90;;;;;;5004351;28;20190;-55
2021/10/13 05:02:01;;;;;;;10.53;7.27;;;9.40;99.90;;;;;;5006304;28;20481;-58
2021/10/13 05:04:27;;;;;;;8.30;6.63;;;9.30;99.90;;;;;;5003304;28;20194;-57
2021/10/13 05:06:52;;;;;;;8.40;6.40;;;9.30;99.90;;;;;;4999654;28;21390;-57
2021/10/13 05:09:18;;;;;;;8.90;7.00;;;9.50;99.90;;;;;;5001702;28;20201;-57
2021/10/13 05:11:44;;;;;;;9.57;6.97;;;9.50;99.90;;;;;;5003827;28;20268;-57
2021/10/13 05:14:11;;;;;;;10.70;6.80;;;9.60;99.90;;;;;;5000842;28;20256;-55
2021/10/13 05:16:37;;;;;;;10.47;7.90;;;9.70;99.90;;;;;;5008068;28;20451;-56
2021/10/13 05:19:03;;;;;;;10.10;7.17;;;9.70;99.90;;;;;;5005432;28;20916;-58
2021/10/13 05:21:29;;;;;;;14.60;8.60;;;9.50;99.90;;;;;;5002902;28;20449;-56
2021/10/13 05:23:55;;;;;;;13.03;7.60;;;9.40;99.90;;;;;;5005916;28;20250;-58
2021/10/13 05:26:21;;;;;;;10.80;8.10;;;9.50;99.90;;;;;;5002996;28;20507;-56
2021/10/13 05:28:46;;;;;;;13.20;8.17;;;9.70;99.90;;;;;;5008225;28;20456;-56
2021/10/13 05:31:12;;;;;;;13.93;8.33;;;9.60;99.90;;;;;;5006649;28;20952;-57
2021/10/13 05:33:38;;;;;;;11.40;9.00;;;9.50;99.90;;;;;;5007688;28;20182;-57
2021/10/13 05:36:04;;;;;;;11.23;7.60;;;9.70;99.90;;;;;;5005093;28;20258;-57
2021/10/13 05:38:29;;;;;;;10.33;8.40;;;9.80;99.90;;;;;;5005162;28;20347;-57
2021/10/13 05:40:55;;;;;;;12.77;8.30;;;9.90;99.90;;;;;;5007594;28;20203;-57
2021/10/13 05:43:21;;;;;;;12.20;8.10;;;9.90;99.90;;;;;;4999203;28;20554;-57
2021/10/13 05:45:47;;;;;;;10.43;8.50;;;9.90;99.90;;;;;;5006428;28;20501;-56
2021/10/13 05:48:15;;;;;;;11.90;9.20;;;9.70;99.90;;;;;;5010384;28;20232;-61
2021/10/13 05:50:40;;;;;;;12.53;8.23;;;9.50;99.90;;;;;;5007063;28;20432;-59
2021/10/13 05:53:06;;;;;;;10.73;7.27;;;9.50;99.90;;;;;;5002892;28;20784;-57
2021/10/13 05:55:32;;;;;;;12.83;8.10;;;9.60;99.90;;;;;;5004760;28;20577;-55
2021/10/13 05:58:01;;;;;;;11.87;7.13;;;9.40;99.90;;;;;;5005182;28;20221;-57
2021/10/13 06:00:28;;;;;;;10.70;8.23;;;9.40;99.90;;;;;;5003129;28;20736;-56
2021/10/13 06:02:54;;;;;;;14.77;7.87;;;9.40;99.90;;;;;;5002021;28;20437;-56
2021/10/13 06:05:20;;;;;;;9.03;7.13;;;9.50;99.90;;;;;;5004090;28;20599;-61
2021/10/13 06:07:45;;;;;;;13.73;8.30;;;9.60;99.90;;;;;;5008368;28;20208;-60
2021/10/13 06:10:11;;;;;;;9.87;7.17;;;9.70;99.90;;;;;;5003851;28;20439;-60
2021/10/13 06:12:37;;;;;;;10.80;7.40;;;9.60;99.90;;;;;;5005106;28;20273;-61
2021/10/13 06:15:03;;;;;;;9.47;7.00;;;9.40;99.90;;;;;;5004414;28;20248;-60
2021/10/13 06:17:31;;;;;;;12.00;7.93;;;9.40;99.90;;;;;;5007350;28;20451;-60
2021/10/13 06:19:56;;;;;;;13.27;9.50;;;9.40;99.90;;;;;;5004865;28;20870;-60
2021/10/13 06:22:22;;;;;;;14.43;9.47;;;9.30;99.90;;;;;;5005255;28;20447;-60
2021/10/13 06:24:48;;;;;;;14.60;8.97;;;9.40;99.90;;;;;;5003446;28;20701;-58
2021/10/13 06:27:13;;;;;;;13.57;9.33;;;9.60;99.90;;;;;;5003767;28;20223;-58
2021/10/13 06:29:42;;;;;;;11.27;8.10;;;10.00;99.90;;;;;;5034896;23;20224;-64
2021/10/13 06:32:08;;;;;;;13.40;7.87;;;10.10;99.90;;;;;;5023335;28;20188;-63
2021/10/13 06:34:33;;;;;;;10.63;8.00;;;10.00;99.90;;;;;;5026321;28;20435;-59
2021/10/13 06:36:59;;;;;;;11.87;7.90;;;10.10;99.90;;;;;;5028177;28;20275;-63
2021/10/13 06:39:24;;;;;;;13.43;7.93;;;10.20;99.90;;;;;;5030363;28;20180;-61
2021/10/13 06:41:50;;;;;;;12.93;9.23;;;10.10;99.90;;;;;;5024648;28;20192;-64
2021/10/13 06:44:16;;;;;;;12.63;8.27;;;10.10;99.90;;;;;;5028241;28;20710;-65
2021/10/13 06:46:42;;;;;;;14.77;8.00;;;9.90;99.90;;;;;;5029889;28;20227;-64
2021/10/13 06:49:08;;;;;;;10.73;8.47;;;9.90;99.90;;;;;;5023812;28;20216;-60
2021/10/13 06:51:34;;;;;;;11.50;8.23;;;10.10;99.90;;;;;;5027099;28;20435;-60
2021/10/13 06:53:59;;;;;;;15.03;7.97;;;10.20;99.90;;;;;;5026132;28;20192;-60
2021/10/13 06:56:25;;;;;;;9.63;7.30;;;10.20;99.90;;;;;;5025372;28;20523;-59
2021/10/13 06:58:51;;;;;;;9.77;6.80;;;10.50;99.90;;;;;;5028989;28;20216;-59
2021/10/13 07:01:16;;;;;;;13.33;7.43;;;10.50;99.90;;;;;;5025543;28;20220;-59
2021/10/13 07:03:42;;;;;;;11.43;9.63;;;10.30;99.90;;;;;;5025578;28;20279;-59
2021/10/13 07:06:08;;;;;;;12.97;8.23;;;10.30;99.90;;;;;;5027048;28;20208;-60
2021/10/13 07:08:33;;;;;;;12.27;8.77;;;10.40;99.90;;;;;;5026523;28;20208;-60
2021/10/13 07:10:59;;;;;;;14.83;8.90;;;10.00;99.90;;;;;;5026457;28;20293;-60
2021/10/13 07:13:24;;;;;;;15.17;8.60;;;9.80;99.90;;;;;;5027153;28;20203;-60
2021/10/13 07:15:50;;;;;;;11.70;8.03;;;9.70;99.90;;;;;;5026564;28;20236;-59
2021/10/13 07:18:16;;;;;;;11.83;9.10;;;9.70;99.90;;;;;;5028927;28;20208;-58
2021/10/13 07:20:41;;;;;;;12.03;8.77;;;9.80;99.90;;;;;;5026237;28;20196;-63
2021/10/13 07:23:07;;;;;;;12.50;8.97;;;9.70;99.90;;;;;;5028665;28;20197;-63
2021/10/13 07:25:33;;;;;;;13.60;9.93;;;9.50;99.90;;;;;;5026327;28;20223;-63
2021/10/13 07:28:01;;;;;;;16.00;9.80;;;9.60;99.90;;;;;;5025122;28;21372;-64
2021/10/13 07:30:27;;;;;;;18.60;9.57;;;9.70;99.90;;;;;;5024535;28;20455;-64
2021/10/13 07:32:53;;;;;;;15.10;10.90;;;9.80;99.90;;;;;;5025728;28;20439;-62
2021/10/13 07:35:21;;;;;;;17.73;12.00;;;9.70;99.90;;;;;;5024727;28;20434;-64
2021/10/13 07:37:47;;;;;;;12.43;9.40;;;9.50;99.90;;;;;;5025769;28;20490;-64
2021/10/13 07:40:13;;;;;;;11.27;7.47;;;9.50;99.90;;;;;;5025872;28;20811;-64
2021/10/13 07:42:39;;;;;;;10.50;7.70;;;9.60;99.90;;;;;;5025285;28;20447;-64
2021/10/13 07:45:05;;;;;;;11.90;7.83;;;9.70;99.90;;;;;;5024041;28;20226;-64
2021/10/13 07:47:31;;;;;;;12.10;7.77;;;9.80;99.90;;;;;;5021713;28;20514;-63
2021/10/13 07:49:56;;;;;;;12.40;8.20;;;9.80;99.90;;;;;;5025991;28;20439;-63
2021/10/13 07:52:22;;;;;;;19.63;8.37;;;9.70;99.90;;;;;;5023833;28;20195;-63
2021/10/13 07:54:48;;;;;;;12.03;7.20;;;9.70;99.90;;;;;;5034934;22;20224;-60
2021/10/13 07:57:13;;;;;;;12.40;7.50;;;9.50;99.90;;;;;;5005080;28;20682;-56
2021/10/13 07:59:39;;;;;;;18.73;8.00;;;9.50;99.90;;;;;;5032717;23;20224;-64
2021/10/13 08:02:05;;;;;;;17.47;8.37;;;9.50;99.90;;;;;;5022730;28;20179;-64
2021/10/13 08:04:31;;;;;;;10.20;8.13;;;9.80;99.90;;;;;;5023641;28;20591;-64
2021/10/13 08:06:57;;;;;;;12.53;7.67;;;10.10;99.90;;;;;;5022281;28;20220;-62
2021/10/13 08:09:24;;;;;;;10.80;7.70;;;10.10;99.90;;;;;;5010622;28;20507;-63
2021/10/13 08:11:50;;;;;;;11.60;8.60;;;9.80;99.90;;;;;;5009860;28;20538;-63
2021/10/13 08:14:17;;;;;;;15.23;9.17;;;9.90;99.90;;;;;;5010360;28;20211;-62
2021/10/13 08:16:42;;;;;;;11.23;8.37;;;10.00;99.90;;;;;;5006941;28;20821;-63
2021/10/13 08:19:08;;;;;;;16.83;8.57;;;10.00;99.90;;;;;;5007189;28;20466;-60
2021/10/13 08:21:34;;;;;;;13.37;8.97;;;10.10;99.90;;;;;;5009932;28;20197;-60
2021/10/13 08:23:59;;;;;;;13.97;8.30;;;10.10;99.90;;;;;;5005831;28;20220;-59
2021/10/13 08:26:25;;;;;;;13.93;9.68;;;10.10;99.90;;;;;;5007369;28;20446;-59
2021/10/13 08:28:51;;;;;;;12.03;8.20;;;10.20;99.90;;;;;;5009881;28;20212;-59
2021/10/13 08:31:17;;;;;;;12.80;8.00;;;10.40;99.90;;;;;;5007824;28;20192;-60
2021/10/13 08:33:43;;;;;;;9.50;7.60;;;10.50;99.90;;;;;;5008396;28;20206;-60
2021/10/13 08:36:09;;;;;;;8.60;7.10;;;10.50;99.90;;;;;;5009677;28;20527;-63
2021/10/13 08:38:35;;;;;;;11.33;8.57;;;10.50;99.90;;;;;;5011088;28;20220;-64
2021/10/13 08:41:01;;;;;;;12.33;8.37;;;10.60;99.90;;;;;;5006631;28;20475;-60
2021/10/13 08:43:26;;;;;;;9.37;7.53;;;10.60;99.90;;;;;;5005010;28;20227;-60
2021/10/13 08:45:52;;;;;;;12.33;8.30;;;10.60;99.90;;;;;;5008745;28;20511;-59
2021/10/13 08:48:18;;;;;;;10.60;7.87;;;10.80;99.90;;;;;;5040250;22;20302;-58
2021/10/13 08:50:46;;;;;;;15.20;8.43;;;10.90;99.90;;;;;;5007367;28;20463;-58
2021/10/13 08:53:16;;;;;;;9.80;7.80;;;10.90;99.90;;;;;;5010602;28;20201;-57
2021/10/13 08:55:43;;;;;;;17.23;9.30;;;11.00;99.90;;;;;;5013514;28;20440;-61
2021/10/13 08:58:11;;;;;;;11.63;8.33;;;11.10;99.90;;;;;;5006653;28;20466;-61
2021/10/13 09:00:37;;;;;;;12.20;7.77;;;11.20;99.90;;;;;;5010321;28;20797;-61
2021/10/13 09:03:03;;;;;;;12.17;7.97;;;11.30;99.90;;;;;;5007582;28;20439;-62
2021/10/13 09:05:28;;;;;;;15.63;7.93;;;11.20;99.90;;;;;;5009324;28;20454;-62
2021/10/13 09:07:56;;;;;;;12.03;8.17;;;11.20;99.90;;;;;;5009033;28;20377;-62
2021/10/13 09:10:34;;;;;;;15.97;7.17;;;11.10;99.90;;;;;;5009899;28;20259;-59
2021/10/13 09:13:02;;;;;;;10.60;6.70;;;11.00;99.90;;;;;;5007745;28;20432;-61
2021/10/13 09:15:31;;;;;;;10.07;6.80;;;11.00;99.90;;;;;;5012929;28;20452;-56
2021/10/13 09:17:59;;;;;;;9.60;6.97;;;11.00;99.90;;;;;;5008649;28;20443;-61
2021/10/13 09:20:47;;;;;;;13.57;7.40;;;10.90;99.90;;;;;;5009045;28;20997;-58
2021/10/13 09:23:19;;;;;;;11.53;7.37;;;11.00;99.90;;;;;;5007518;28;20470;-58
2021/10/13 09:26:07;;;;;;;8.10;6.10;;;11.00;99.90;;;;;;5007171;28;20463;-57
2021/10/13 09:28:33;;;;;;;9.33;6.70;;;11.10;99.90;;;;;;5009788;28;20451;-58
2021/10/13 09:31:13;;;;;;;8.50;6.47;;;11.10;99.90;;;;;;5008895;28;20432;-61
2021/10/13 09:34:00;;;;;;;11.40;5.93;;;11.00;99.90;;;;;;5007064;28;20444;-61
2021/10/13 09:36:43;;;;;;;8.33;5.80;;;11.30;99.90;;;;;;5005104;28;20514;-61
2021/10/13 09:39:14;;;;;;;7.97;5.30;;;11.40;99.90;;;;;;5005770;28;20467;-63
2021/10/13 09:42:02;;;;;;;10.90;6.70;;;11.30;99.90;;;;;;5005632;28;20424;-62
2021/10/13 09:44:30;;;;;;;8.20;5.80;;;11.40;99.90;;;;;;4999510;28;20741;-62
2021/10/13 09:46:58;;;;;;;7.57;5.27;;;11.60;99.90;;;;;;5003124;28;20467;-61
2021/10/13 09:49:32;;;;;;;10.63;6.70;;;11.90;99.90;;;;;;5000371;28;20518;-62
2021/10/13 09:52:14;;;;;;;7.97;5.03;;;11.80;99.90;;;;;;5000125;28;20793;-61
2021/10/13 09:54:42;;;;;;;9.83;5.13;;;11.70;99.90;;;;;;5015684;22;20495;-59
2021/10/13 09:57:19;;;;;;;5.63;4.63;;;11.70;99.90;;;;;;4996293;28;20428;-60
2021/10/13 10:00:03;;;;;;;10.80;5.13;;;11.90;99.90;;;;;;4992738;28;20653;-59
2021/10/13 10:02:33;;;;;;;7.60;5.20;;;11.70;99.90;;;;;;4996318;28;20428;-59
2021/10/13 10:05:11;;;;;;;9.27;5.63;;;11.60;99.90;;;;;;4990455;28;20448;-64
2021/10/13 10:07:46;;;;;;;7.60;5.50;;;11.60;99.90;;;;;;4993990;28;20632;-64
2021/10/13 10:10:16;;;;;;;6.77;4.70;;;11.60;99.90;;;;;;4996718;28;20584;-65
2021/10/13 10:13:08;;;;;;;7.00;6.07;;;11.50;99.90;;;;;;4991942;28;20464;-64
2021/10/13 10:15:45;;;;;;;7.90;5.70;;;11.70;99.90;;;;;;4992232;28;20469;-65
2021/10/13 10:18:34;;;;;;;8.13;5.60;;;11.70;99.90;;;;;;4991036;28;20451;-64
2021/10/13 10:21:18;;;;;;;13.33;5.60;;;11.80;99.90;;;;;;4994313;28;20440;-60
2021/10/13 10:23:45;;;;;;;8.67;5.20;;;11.90;99.90;;;;;;5032817;22;20498;-55
2021/10/13 10:26:26;;;;;;;8.70;4.70;;;11.90;99.90;;;;;;5025513;28;20523;-57
2021/10/13 10:28:54;;;;;;;7.03;5.10;;;12.10;99.90;;;;;;5014948;28;20565;-55
2021/10/13 10:31:29;;;;;;;6.10;5.00;;;11.90;99.90;;;;;;5014040;28;20806;-56
2021/10/13 10:34:06;;;;;;;7.33;5.03;;;12.00;99.90;;;;;;5011091;28;20424;-57
2021/10/13 10:36:35;;;;;;;7.07;5.37;;;11.90;99.90;;;;;;5011982;28;20477;-57
2021/10/13 10:39:11;;;;;;;6.00;4.20;;;11.80;99.90;;;;;;5012553;28;20494;-57
2021/10/13 10:41:54;;;;;;;11.03;5.00;;;12.00;99.90;;;;;;5014610;28;20435;-58
2021/10/13 10:44:41;;;;;;;6.07;3.60;;;12.10;99.90;;;;;;5010137;28;20537;-58
2021/10/13 10:47:09;;;;;;;8.23;4.23;;;12.30;99.90;;;;;;4999184;28;20463;-58
2021/10/13 10:49:47;;;;;;;6.73;4.40;;;12.60;99.90;;;;;;5003241;28;20517;-57
2021/10/13 10:52:24;;;;;;;7.97;5.40;;;12.60;99.90;;;;;;5004864;28;20519;-62
2021/10/13 10:55:07;;;;;;;10.67;5.90;;;12.70;99.90;;;;;;5007145;28;20470;-62
2021/10/13 10:57:48;;;;;;;9.67;5.27;;;12.70;99.90;;;;;;5005007;28;20558;-62
2021/10/13 11:00:23;;;;;;;9.43;5.50;;;12.70;99.90;;;;;;5007871;28;20490;-61
2021/10/13 11:03:22;;;;;;;9.60;5.37;;;12.90;99.90;;;;;;5006013;28;20514;-62
2021/10/13 11:05:48;;;;;;;6.40;4.87;;;13.10;99.90;;;;;;5006366;28;21061;-58
2021/10/13 11:08:14;;;;;;;6.10;4.40;;;13.10;99.90;;;;;;5007382;28;20488;-61
2021/10/13 11:10:41;;;;;;;6.70;4.90;;;13.20;99.90;;;;;;5010221;28;20458;-60
2021/10/13 11:13:07;;;;;;;7.73;4.73;;;13.10;99.90;;;;;;5002711;28;20424;-60
2021/10/13 11:15:34;;;;;;;7.57;4.93;;;12.90;99.90;;;;;;5018729;23;20853;-63
2021/10/13 11:18:15;;;;;;;8.93;6.30;;;12.90;99.90;;;;;;5008767;28;20467;-63
2021/10/13 11:20:41;;;;;;;7.10;4.40;;;13.10;99.90;;;;;;4995732;28;20802;-63
2021/10/13 11:23:08;;;;;;;8.30;4.90;;;12.90;99.90;;;;;;4998707;28;20475;-64
2021/10/13 11:25:35;;;;;;;7.63;4.30;;;12.70;99.90;;;;;;4998895;28;20827;-64
2021/10/13 11:28:02;;;;;;;10.33;4.20;;;12.90;99.90;;;;;;4998604;28;20891;-62
2021/10/13 11:30:34;;;;;;;6.20;4.57;;;13.10;99.90;;;;;;4999718;28;20444;-64
2021/10/13 11:33:04;;;;;;;5.77;3.80;;;13.30;99.90;;;;;;4993881;28;20440;-63
2021/10/13 11:35:29;;;;;;;3.30;3.00;;;13.50;99.90;;;;;;4999150;28;20485;-63
2021/10/13 11:37:55;;;;;;;7.00;3.43;;;13.90;99.90;;;;;;5003131;28;20550;-63
2021/10/13 11:40:22;;;;;;;6.27;2.80;;;14.30;99.90;;;;;;4999366;28;20186;-63
2021/10/13 11:42:48;;;;;;;5.30;2.73;;;14.40;99.90;;;;;;4999791;28;20194;-64
2021/10/13 11:45:16;;;;;;;9.80;2.83;;;14.40;99.90;;;;;;4998840;28;20440;-64
2021/10/13 11:47:42;;;;;;;6.10;2.90;;;14.50;99.90;;;;;;4999251;28;20843;-65
2021/10/13 11:50:10;;;;;;;5.80;3.40;;;14.70;99.90;;;;;;4998810;28;20447;-64
2021/10/13 11:52:40;;;;;;;5.67;3.33;;;14.40;99.90;;;;;;5001012;28;20440;-64
2021/10/13 11:55:14;;;;;;;8.97;3.23;;;13.90;99.90;;;;;;5000444;28;20531;-64
2021/10/13 11:57:51;;;;;;;6.70;3.27;;;13.80;99.90;;;;;;5002320;28;20467;-59
2021/10/13 12:00:20;;;;;;;5.20;2.93;;;14.10;99.90;;;;;;5000474;28;20502;-61
2021/10/13 12:03:04;;;;;;;5.00;2.90;;;14.30;99.90;;;;;;5000025;28;20872;-60
2021/10/13 12:05:51;;;;;;;8.37;3.30;;;14.30;99.90;;;;;;5002340;28;20432;-60
2021/10/13 12:08:24;;;;;;;9.17;4.70;;;14.20;99.90;;;;;;4998850;28;20456;-61
2021/10/13 12:10:53;;;;;;;4.10;3.43;;;14.10;99.90;;;;;;4997564;28;20436;-61
2021/10/13 12:13:23;;;;;;;7.70;4.47;;;14.20;99.90;;;;;;5000576;28;20438;-60
2021/10/13 12:15:50;;;;;;;7.47;4.00;;;14.10;99.90;;;;;;4996962;28;20468;-59
2021/10/13 12:18:17;;;;;;;8.20;3.80;;;13.70;99.90;;;;;;5001337;28;20451;-59
2021/10/13 12:20:47;;;;;;;4.30;3.47;;;13.60;99.90;;;;;;4996326;28;20789;-60
2021/10/13 12:23:24;;;;;;;6.03;3.17;;;13.30;99.90;;;;;;4998954;28;20816;-60
2021/10/13 12:25:50;;;;;;;4.77;3.13;;;13.10;99.90;;;;;;4999127;28;20832;-60
2021/10/13 12:28:28;;;;;;;5.27;3.27;;;13.20;99.90;;;;;;5001241;28;20460;-60
2021/10/13 12:31:04;;;;;;;2.70;2.50;;;13.20;99.90;;;;;;5000057;28;20930;-61
2021/10/13 12:33:51;;;;;;;3.67;2.10;;;13.20;99.90;;;;;;5002176;28;20447;-60
2021/10/13 12:36:30;;;;;;;3.83;2.40;;;13.30;99.90;;;;;;5004117;28;20428;-60
2021/10/13 12:39:04;;;;;;;2.53;2.30;;;13.20;99.90;;;;;;4999390;28;20487;-60
2021/10/13 12:41:43;;;;;;;4.53;2.60;;;13.00;99.90;;;;;;5002975;28;20443;-63
2021/10/13 12:44:14;;;;;;;3.10;2.63;;;12.80;99.90;;;;;;5006201;28;20523;-64
2021/10/13 12:46:53;;;;;;;8.17;3.17;;;12.70;99.90;;;;;;5001765;28;20475;-67
2021/10/13 12:49:20;;;;;;;3.03;2.73;;;12.10;99.90;;;;;;5016269;28;20434;-67
2021/10/13 12:52:02;;;;;;;3.37;2.70;;;12.30;99.90;;;;;;5004699;28;20456;-68
2021/10/13 12:54:36;;;;;;;3.80;2.63;;;12.40;99.90;;;;;;5002261;28;20517;-68
2021/10/13 12:57:04;;;;;;;4.17;2.87;;;12.60;99.90;;;;;;4994963;28;20904;-67